createdAt,value
2018-07-23T00:00:47.116Z,6.20
2018-07-23T00:02:49.464Z,6.47
2018-07-23T00:04:51.929Z,6.50
2018-07-23T00:06:54.255Z,6.33
2018-07-23T00:08:56.571Z,6.17
2018-07-23T00:10:58.786Z,6.30
2018-07-23T00:13:01.013Z,6.47
2018-07-23T00:15:03.266Z,6.50
2018-07-23T00:17:05.505Z,6.17
2018-07-23T00:19:07.673Z,5.93
2018-07-23T00:21:09.898Z,6.53
2018-07-23T00:23:12.092Z,6.33
2018-07-23T00:25:14.465Z,6.47
2018-07-23T00:27:16.687Z,6.10
2018-07-23T00:29:19.026Z,8.27
2018-07-23T00:31:21.223Z,6.60
2018-07-23T00:33:23.450Z,6.23
2018-07-23T00:35:25.649Z,8.23
2018-07-23T00:37:27.931Z,6.60
2018-07-23T00:39:30.165Z,6.33
2018-07-23T00:41:32.396Z,6.40
2018-07-23T00:43:34.625Z,8.73
2018-07-23T00:45:36.813Z,6.53
2018-07-23T00:47:39.298Z,6.57
2018-07-23T00:49:41.475Z,5.93
2018-07-23T00:51:43.641Z,6.67
2018-07-23T00:53:45.852Z,6.00
2018-07-23T00:55:48.047Z,6.10
2018-07-23T00:57:50.233Z,6.10
2018-07-23T00:59:52.431Z,6.27
2018-07-23T01:01:55.087Z,5.87
2018-07-23T01:03:57.276Z,6.13
2018-07-23T01:05:59.501Z,6.30
2018-07-23T01:08:01.819Z,6.43
2018-07-23T01:10:04.316Z,6.27
2018-07-23T01:12:06.529Z,6.50
2018-07-23T01:14:08.543Z,6.10
2018-07-23T01:16:10.761Z,6.90
2018-07-23T01:18:13.015Z,6.73
2018-07-23T01:20:15.289Z,6.43
2018-07-23T01:22:17.509Z,6.80
2018-07-23T01:24:19.839Z,6.30
2018-07-23T01:26:22.283Z,6.77
2018-07-23T01:28:24.501Z,5.93
2018-07-23T01:30:26.772Z,6.40
2018-07-23T01:32:28.956Z,6.60
2018-07-23T01:34:31.150Z,5.83
2018-07-23T01:36:33.404Z,6.33
2018-07-23T01:38:35.587Z,6.27
2018-07-23T01:40:37.789Z,6.67
2018-07-23T01:42:40.022Z,6.60
2018-07-23T01:44:42.204Z,6.10
2018-07-23T01:46:44.392Z,6.90
2018-07-23T01:48:46.639Z,6.47
2018-07-23T01:50:48.902Z,5.93
2018-07-23T01:52:51.099Z,5.93
2018-07-23T01:54:53.372Z,6.70
2018-07-23T01:56:55.622Z,6.57
2018-07-23T01:58:57.794Z,6.57
2018-07-23T02:01:01.841Z,6.60
2018-07-23T02:03:04.065Z,6.47
2018-07-23T02:05:06.263Z,6.50
2018-07-23T02:07:08.635Z,6.30
2018-07-23T02:09:12.528Z,6.23
2018-07-23T02:11:14.737Z,6.30
2018-07-23T02:13:16.973Z,6.83
2018-07-23T02:15:19.210Z,6.40
2018-07-23T02:17:21.443Z,6.33
2018-07-23T02:19:23.698Z,6.13
2018-07-23T02:21:26.491Z,6.50
2018-07-23T02:23:28.699Z,6.53
2018-07-23T02:25:30.933Z,6.57
2018-07-23T02:27:33.317Z,6.03
2018-07-23T02:29:35.515Z,6.73
2018-07-23T02:31:38.180Z,6.27
2018-07-23T02:33:40.366Z,6.57
2018-07-23T02:35:42.564Z,6.10
2018-07-23T02:37:44.790Z,6.30
2018-07-23T02:39:46.971Z,6.43
2018-07-23T02:41:49.234Z,6.60
2018-07-23T02:43:51.433Z,6.27
2018-07-23T02:45:53.651Z,6.20
2018-07-23T02:47:56.022Z,6.27
2018-07-23T02:49:58.321Z,6.50
2018-07-23T02:52:00.601Z,6.13
2018-07-23T02:54:02.852Z,6.70
2018-07-23T02:56:05.077Z,6.57
2018-07-23T02:58:07.367Z,6.07
2018-07-23T03:00:09.637Z,6.77
2018-07-23T03:02:11.856Z,6.70
2018-07-23T03:04:14.044Z,6.80
2018-07-23T03:06:16.270Z,6.60
2018-07-23T03:10:27.038Z,6.30
2018-07-23T03:12:29.271Z,6.33
2018-07-23T03:14:32.073Z,6.33
2018-07-23T03:16:34.317Z,6.53
2018-07-23T03:18:36.511Z,6.80
2018-07-23T03:20:38.750Z,6.40
2018-07-23T03:22:41.118Z,8.03
2018-07-23T03:24:43.361Z,6.17
2018-07-23T03:26:45.709Z,6.77
2018-07-23T03:28:47.902Z,6.40
2018-07-23T03:30:50.141Z,6.53
2018-07-23T03:32:52.428Z,6.73
2018-07-23T03:34:54.709Z,6.17
2018-07-23T03:36:57.010Z,5.93
2018-07-23T03:38:59.203Z,6.27
2018-07-23T03:41:01.373Z,6.53
2018-07-23T03:43:03.608Z,6.63
2018-07-23T03:45:13.565Z,5.90
2018-07-23T03:47:15.968Z,5.83
2018-07-23T03:49:21.916Z,6.40
2018-07-23T03:51:24.125Z,6.50
2018-07-23T03:53:26.311Z,6.53
2018-07-23T03:55:28.528Z,6.57
2018-07-23T03:57:30.902Z,6.00
2018-07-23T03:59:33.104Z,6.47
2018-07-23T04:01:35.334Z,6.53
2018-07-23T04:03:37.616Z,5.90
2018-07-23T04:05:39.773Z,6.60
2018-07-23T04:07:42.111Z,6.23
2018-07-23T04:09:44.472Z,6.53
2018-07-23T04:11:46.666Z,6.90
2018-07-23T04:13:48.891Z,6.60
2018-07-23T04:15:51.137Z,6.20
2018-07-23T04:17:58.745Z,5.83
2018-07-23T04:20:00.971Z,6.33
2018-07-23T04:22:03.436Z,8.97
2018-07-23T04:24:09.436Z,6.23
2018-07-23T04:26:11.642Z,6.10
2018-07-23T04:28:13.905Z,5.70
2018-07-23T04:30:16.182Z,6.30
2018-07-23T04:32:18.443Z,6.37
2018-07-23T04:34:20.842Z,6.50
2018-07-23T04:36:23.038Z,5.93
2018-07-23T04:38:25.255Z,6.43
2018-07-23T04:40:27.526Z,6.47
2018-07-23T04:42:29.741Z,6.30
2018-07-23T04:44:31.978Z,6.00
2018-07-23T04:46:34.202Z,6.20
2018-07-23T04:48:36.642Z,5.97
2018-07-23T04:50:38.919Z,8.20
2018-07-23T04:52:41.223Z,5.87
2018-07-23T04:54:43.422Z,5.73
2018-07-23T04:56:45.726Z,6.33
2018-07-23T04:58:48.039Z,5.90
2018-07-23T05:00:50.282Z,5.83
2018-07-23T05:02:52.453Z,6.13
2018-07-23T05:04:54.679Z,5.97
2018-07-23T05:06:56.939Z,6.23
2018-07-23T05:08:59.201Z,6.00
2018-07-23T05:11:01.450Z,6.17
2018-07-23T05:13:03.831Z,5.80
2018-07-23T05:15:06.288Z,6.00
2018-07-23T05:17:08.710Z,5.90
2018-07-23T05:21:19.541Z,6.23
2018-07-23T05:23:21.794Z,5.60
2018-07-23T05:25:23.954Z,6.17
2018-07-23T05:27:26.163Z,6.10
2018-07-23T05:29:28.420Z,5.87
2018-07-23T05:31:30.627Z,6.20
2018-07-23T05:33:33.013Z,5.80
2018-07-23T05:35:35.223Z,5.93
2018-07-23T05:37:37.423Z,5.40
2018-07-23T05:39:39.628Z,5.93
2018-07-23T05:41:41.853Z,6.10
2018-07-23T05:43:44.069Z,5.50
2018-07-23T05:45:46.233Z,5.93
2018-07-23T05:47:48.502Z,5.70
2018-07-23T05:49:50.723Z,5.50
2018-07-23T05:51:52.918Z,5.83
2018-07-23T05:53:55.103Z,5.83
2018-07-23T05:55:57.327Z,10.33
2018-07-23T05:57:59.591Z,10.57
2018-07-23T06:00:02.037Z,11.43
2018-07-23T06:02:04.427Z,12.90
2018-07-23T06:04:06.623Z,14.87
2018-07-23T06:06:08.848Z,14.20
2018-07-23T06:08:11.076Z,14.13
2018-07-23T06:10:13.319Z,15.10
2018-07-23T06:12:15.606Z,15.40
2018-07-23T06:14:17.809Z,14.90
2018-07-23T06:16:20.018Z,14.47
2018-07-23T06:18:22.261Z,14.83
2018-07-23T06:20:24.450Z,14.90
2018-07-23T06:22:26.679Z,13.47
2018-07-23T06:24:28.897Z,15.77
2018-07-23T06:26:31.195Z,14.97
2018-07-23T06:28:35.243Z,16.47
2018-07-23T06:30:37.465Z,15.80
2018-07-23T06:32:39.664Z,15.23
2018-07-23T06:34:48.423Z,15.00
2018-07-23T06:36:50.841Z,14.87
2018-07-23T06:38:53.043Z,14.60
2018-07-23T06:40:55.372Z,18.73
2018-07-23T06:42:57.629Z,13.47
2018-07-23T06:44:59.834Z,14.03
2018-07-23T06:47:02.054Z,13.30
2018-07-23T06:49:04.472Z,12.60
2018-07-23T06:51:06.775Z,14.00
2018-07-23T06:53:08.999Z,14.00
2018-07-23T06:55:11.292Z,15.47
2018-07-23T06:57:14.278Z,13.17
2018-07-23T06:59:16.500Z,11.73
2018-07-23T07:01:18.977Z,10.03
2018-07-23T07:03:21.241Z,11.00
2018-07-23T07:05:23.457Z,10.40
2018-07-23T07:07:25.721Z,10.03
2018-07-23T07:09:27.920Z,9.80
2018-07-23T07:11:30.102Z,9.87
2018-07-23T07:13:32.458Z,9.20
2018-07-23T07:15:34.557Z,9.60
2018-07-23T07:17:37.435Z,9.97
2018-07-23T07:19:39.646Z,9.43
2018-07-23T07:21:41.895Z,9.97
2018-07-23T07:23:44.112Z,13.40
2018-07-23T07:25:46.310Z,10.57
2018-07-23T07:27:48.532Z,12.20
2018-07-23T07:29:50.771Z,10.23
2018-07-23T07:31:53.062Z,10.37
2018-07-23T07:33:55.349Z,10.57
2018-07-23T07:35:57.552Z,11.00
2018-07-23T07:37:59.868Z,9.90
2018-07-23T07:40:02.042Z,9.63
2018-07-23T07:42:04.248Z,10.77
2018-07-23T07:44:06.719Z,11.27
2018-07-23T07:46:08.945Z,10.17
2018-07-23T07:48:11.252Z,9.97
2018-07-23T07:50:13.470Z,9.23
2018-07-23T07:52:15.683Z,9.63
2018-07-23T07:54:17.999Z,8.97
2018-07-23T07:56:20.232Z,7.97
2018-07-23T07:58:22.455Z,8.17
2018-07-23T08:00:24.718Z,7.03
2018-07-23T08:02:27.578Z,6.30
2018-07-23T08:04:29.869Z,6.30
2018-07-23T08:06:32.102Z,6.93
2018-07-23T08:08:34.324Z,7.03
2018-07-23T08:10:36.564Z,6.43
2018-07-23T08:12:38.799Z,6.10
2018-07-23T08:14:40.986Z,6.17
2018-07-23T08:16:43.226Z,6.43
2018-07-23T08:18:45.565Z,5.73
2018-07-23T08:20:47.980Z,6.10
2018-07-23T08:22:50.202Z,5.80
2018-07-23T08:24:52.457Z,6.03
2018-07-23T08:26:54.743Z,5.50
2018-07-23T08:28:56.986Z,5.80
2018-07-23T08:30:59.225Z,5.93
2018-07-23T08:33:01.560Z,5.53
2018-07-23T08:35:03.785Z,6.33
2018-07-23T08:37:06.071Z,6.13
2018-07-23T08:39:09.275Z,5.50
2018-07-23T08:41:11.541Z,5.77
2018-07-23T08:43:13.768Z,6.80
2018-07-23T08:45:16.006Z,5.63
2018-07-23T08:47:18.251Z,5.87
2018-07-23T08:49:20.502Z,6.23
2018-07-23T08:51:22.805Z,5.80
2018-07-23T08:53:25.122Z,6.30
2018-07-23T08:55:27.679Z,6.13
2018-07-23T08:57:30.281Z,5.53
2018-07-23T08:59:32.519Z,6.33
2018-07-23T09:01:34.780Z,5.90
2018-07-23T09:03:37.050Z,6.00
2018-07-23T09:05:39.355Z,5.63
2018-07-23T09:07:41.641Z,6.33
2018-07-23T09:09:43.950Z,6.07
2018-07-23T09:11:46.221Z,5.60
2018-07-23T09:13:48.462Z,5.60
2018-07-23T09:15:50.748Z,5.20
2018-07-23T09:17:52.959Z,5.50
2018-07-23T09:19:55.270Z,5.43
2018-07-23T09:21:57.625Z,5.77
2018-07-23T09:23:59.879Z,6.27
2018-07-23T09:26:02.070Z,4.70
2018-07-23T09:28:04.283Z,5.57
2018-07-23T09:30:09.596Z,5.93
2018-07-23T09:32:11.863Z,5.80
2018-07-23T09:34:14.163Z,5.17
2018-07-23T09:36:17.375Z,5.77
2018-07-23T09:38:20.294Z,5.63
2018-07-23T09:40:22.560Z,5.43
2018-07-23T09:42:24.817Z,5.57
2018-07-23T09:44:27.081Z,5.67
2018-07-23T09:46:29.380Z,5.70
2018-07-23T09:48:32.450Z,5.40
2018-07-23T09:50:34.740Z,6.13
2018-07-23T09:52:36.981Z,5.70
2018-07-23T09:54:39.193Z,5.67
2018-07-23T09:56:41.385Z,5.70
2018-07-23T09:58:43.684Z,5.83
2018-07-23T10:00:51.433Z,5.07
2018-07-23T10:02:54.562Z,5.60
2018-07-23T10:04:56.808Z,5.50
2018-07-23T10:06:59.107Z,5.60
2018-07-23T10:09:01.407Z,5.33
2018-07-23T10:11:04.186Z,4.93
2018-07-23T10:13:09.377Z,4.63
2018-07-23T10:15:14.180Z,5.03
2018-07-23T10:17:16.739Z,5.73
2018-07-23T10:19:18.958Z,4.77
2018-07-23T10:21:21.132Z,4.90
2018-07-23T10:23:23.334Z,4.50
2018-07-23T10:25:25.571Z,5.10
2018-07-23T10:27:27.760Z,4.50
2018-07-23T10:29:29.994Z,4.50
2018-07-23T10:31:32.823Z,4.93
2018-07-23T10:33:35.002Z,4.87
2018-07-23T10:35:37.218Z,4.20
2018-07-23T10:37:39.401Z,4.43
2018-07-23T10:39:41.598Z,4.50
2018-07-23T10:41:43.788Z,4.13
2018-07-23T10:43:46.767Z,4.70
2018-07-23T10:45:49.000Z,4.57
2018-07-23T10:47:51.285Z,4.53
2018-07-23T10:49:53.642Z,4.87
2018-07-23T10:51:55.874Z,5.03
2018-07-23T10:53:58.201Z,5.00
2018-07-23T10:56:00.484Z,4.90
2018-07-23T10:58:02.670Z,4.87
2018-07-23T11:00:04.867Z,5.40
2018-07-23T11:02:07.059Z,5.13
2018-07-23T11:04:09.357Z,5.03
2018-07-23T11:06:11.554Z,4.77
2018-07-23T11:08:13.754Z,7.20
2018-07-23T11:10:15.981Z,5.77
2018-07-23T11:12:18.363Z,6.00
2018-07-23T11:14:20.586Z,5.70
2018-07-23T11:16:22.858Z,6.33
2018-07-23T11:18:25.087Z,6.03
2018-07-23T11:20:27.342Z,5.30
2018-07-23T11:22:29.603Z,5.30
2018-07-23T11:24:31.879Z,5.40
2018-07-23T11:26:38.531Z,5.43
2018-07-23T11:28:40.719Z,5.70
2018-07-23T11:30:42.977Z,5.97
2018-07-23T11:32:45.281Z,6.00
2018-07-23T11:34:47.474Z,6.27
2018-07-23T11:36:49.710Z,5.87
2018-07-23T11:38:51.894Z,5.83
2018-07-23T11:40:54.209Z,6.53
2018-07-23T11:42:56.507Z,6.00
2018-07-23T11:44:58.827Z,6.00
2018-07-23T11:47:01.007Z,6.50
2018-07-23T11:49:03.861Z,5.93
2018-07-23T11:51:06.144Z,6.20
2018-07-23T11:53:08.362Z,5.77
2018-07-23T11:55:10.648Z,5.97
2018-07-23T11:57:13.227Z,6.10
2018-07-23T11:59:15.422Z,6.23
2018-07-23T12:01:17.856Z,6.63
2018-07-23T12:03:20.159Z,6.47
2018-07-23T12:05:22.395Z,6.47
2018-07-23T12:07:24.864Z,6.60
2018-07-23T12:09:27.132Z,6.20
2018-07-23T12:11:29.383Z,6.37
2018-07-23T12:13:31.665Z,6.60
2018-07-23T12:15:33.961Z,6.50
2018-07-23T12:17:36.227Z,5.90
2018-07-23T12:19:38.509Z,5.93
2018-07-23T12:21:40.820Z,5.70
2018-07-23T12:23:43.157Z,6.00
2018-07-23T12:25:45.421Z,6.30
2018-07-23T12:27:47.771Z,6.17
2018-07-23T12:29:50.098Z,7.23
2018-07-23T12:31:52.380Z,6.07
2018-07-23T12:33:54.652Z,6.10
2018-07-23T12:35:57.000Z,6.27
2018-07-23T12:37:59.948Z,6.43
2018-07-23T12:40:02.355Z,6.73
2018-07-23T12:42:04.557Z,6.43
2018-07-23T12:44:06.871Z,6.63
2018-07-23T12:46:09.119Z,6.23
2018-07-23T12:48:11.344Z,5.97
2018-07-23T12:50:13.771Z,6.10
2018-07-23T12:52:16.054Z,6.07
2018-07-23T12:54:18.318Z,6.13
2018-07-23T12:56:21.335Z,6.33
2018-07-23T12:58:24.596Z,6.37
2018-07-23T13:00:26.856Z,5.93
2018-07-23T13:02:29.031Z,5.80
2018-07-23T13:04:31.246Z,5.73
2018-07-23T13:06:33.421Z,5.67
2018-07-23T13:08:35.643Z,5.87
2018-07-23T13:10:37.850Z,5.77
2018-07-23T13:12:40.062Z,6.60
2018-07-23T13:14:42.280Z,6.20
2018-07-23T13:16:44.595Z,5.73
2018-07-23T13:18:46.779Z,5.60
2018-07-23T13:20:48.986Z,5.97
2018-07-23T13:22:51.164Z,5.80
2018-07-23T13:24:53.335Z,5.60
2018-07-23T13:26:55.578Z,5.30
2018-07-23T13:28:57.800Z,5.70
2018-07-23T13:31:00.237Z,5.23
2018-07-23T13:33:02.552Z,5.50
2018-07-23T13:35:05.801Z,5.57
2018-07-23T13:37:07.973Z,5.77
2018-07-23T13:39:12.209Z,5.43
2018-07-23T13:41:14.389Z,5.50
2018-07-23T13:43:16.830Z,5.73
2018-07-23T13:45:19.066Z,4.97
2018-07-23T13:47:22.122Z,5.57
2018-07-23T13:49:24.331Z,5.20
2018-07-23T13:51:26.714Z,5.47
2018-07-23T13:53:28.965Z,5.20
2018-07-23T13:55:31.221Z,5.30
2018-07-23T13:57:33.677Z,5.23
2018-07-23T13:59:35.909Z,5.07
2018-07-23T14:01:38.183Z,5.47
2018-07-23T14:03:40.425Z,5.00
2018-07-23T14:05:42.620Z,5.23
2018-07-23T14:07:44.949Z,5.43
2018-07-23T14:09:47.145Z,5.00
2018-07-23T14:11:49.385Z,5.00
2018-07-23T14:13:52.031Z,5.13
2018-07-23T14:15:54.371Z,5.03
2018-07-23T14:17:56.566Z,4.90
2018-07-23T14:19:58.789Z,4.70
2018-07-23T14:22:01.095Z,4.83
2018-07-23T14:24:03.282Z,4.50
2018-07-23T14:26:05.490Z,4.40
2018-07-23T14:28:07.665Z,5.00
2018-07-23T14:30:09.903Z,4.70
2018-07-23T14:32:12.184Z,4.70
2018-07-23T14:34:15.122Z,4.53
2018-07-23T14:36:17.335Z,4.80
2018-07-23T14:38:19.716Z,5.00
2018-07-23T14:40:22.713Z,4.73
2018-07-23T14:42:24.902Z,4.43
2018-07-23T14:44:27.110Z,4.70
2018-07-23T14:46:29.389Z,4.50
2018-07-23T14:48:31.751Z,4.70
2018-07-23T14:50:34.019Z,4.80
2018-07-23T14:52:36.319Z,5.20
2018-07-23T14:54:38.805Z,4.83
2018-07-23T14:56:41.222Z,4.83
2018-07-23T14:58:43.553Z,4.77
2018-07-23T15:00:45.795Z,4.87
2018-07-23T15:02:48.019Z,4.63
2018-07-23T15:04:50.504Z,5.10
2018-07-23T15:06:52.762Z,4.40
2018-07-23T15:08:55.188Z,5.00
2018-07-23T15:10:57.394Z,4.67
2018-07-23T15:13:00.107Z,4.30
2018-07-23T15:15:02.411Z,4.57
2018-07-23T15:17:04.772Z,4.50
2018-07-23T15:19:06.986Z,4.37
2018-07-23T15:21:09.219Z,5.17
2018-07-23T15:23:11.488Z,4.50
2018-07-23T15:25:13.697Z,4.70
2018-07-23T15:27:15.970Z,4.20
2018-07-23T15:29:18.264Z,4.90
2018-07-23T15:31:20.479Z,4.57
2018-07-23T15:33:22.706Z,4.33
2018-07-23T15:35:24.944Z,4.50
2018-07-23T15:37:27.155Z,4.43
2018-07-23T15:39:29.345Z,4.27
2018-07-23T15:41:31.588Z,4.53
2018-07-23T15:43:33.864Z,4.67
2018-07-23T15:45:36.325Z,4.63
2018-07-23T15:47:38.353Z,4.70
2018-07-23T15:49:40.590Z,4.53
2018-07-23T15:51:42.798Z,5.23
2018-07-23T15:53:45.031Z,5.10
2018-07-23T15:55:47.235Z,5.70
2018-07-23T15:57:49.409Z,5.50
2018-07-23T15:59:51.611Z,6.23
2018-07-23T16:01:53.841Z,5.70
2018-07-23T16:03:55.998Z,5.60
2018-07-23T16:05:58.316Z,5.53
2018-07-23T16:08:00.585Z,6.00
2018-07-23T16:10:02.789Z,6.37
2018-07-23T16:12:05.083Z,5.97
2018-07-23T16:14:07.453Z,6.30
2018-07-23T16:16:09.882Z,5.70
2018-07-23T16:18:12.159Z,5.50
2018-07-23T16:20:14.382Z,5.80
2018-07-23T16:22:16.576Z,5.53
2018-07-23T16:24:18.841Z,5.97
2018-07-23T16:26:21.085Z,5.93
2018-07-23T16:28:23.282Z,6.33
2018-07-23T16:30:25.832Z,6.10
2018-07-23T16:32:28.130Z,6.40
2018-07-23T16:34:30.437Z,6.63
2018-07-23T16:36:32.740Z,5.70
2018-07-23T16:38:34.957Z,7.17
2018-07-23T16:40:37.193Z,6.10
2018-07-23T16:42:39.498Z,5.80
2018-07-23T16:44:41.749Z,6.40
2018-07-23T16:46:44.267Z,6.27
2018-07-23T16:48:47.343Z,5.93
2018-07-23T16:50:49.547Z,5.50
2018-07-23T16:52:51.770Z,6.23
2018-07-23T16:54:53.950Z,5.77
2018-07-23T16:56:56.153Z,5.67
2018-07-23T16:58:58.380Z,5.20
2018-07-23T17:01:00.611Z,5.50
2018-07-23T17:03:02.834Z,5.33
2018-07-23T17:05:05.043Z,5.37
2018-07-23T17:07:07.364Z,4.90
2018-07-23T17:09:11.377Z,5.33
2018-07-23T17:11:14.846Z,4.90
2018-07-23T17:13:17.053Z,4.73
2018-07-23T17:15:19.859Z,5.07
2018-07-23T17:17:22.098Z,4.70
2018-07-23T17:19:24.324Z,4.97
2018-07-23T17:21:26.508Z,4.57
2018-07-23T17:23:28.783Z,4.80
2018-07-23T17:25:31.017Z,5.17
2018-07-23T17:27:33.202Z,4.67
2018-07-23T17:29:36.150Z,5.13
2018-07-23T17:31:38.360Z,4.83
2018-07-23T17:33:40.625Z,4.80
2018-07-23T17:35:42.892Z,4.53
2018-07-23T17:37:45.215Z,4.47
2018-07-23T17:39:47.481Z,4.67
2018-07-23T17:41:57.321Z,4.93
2018-07-23T17:43:59.636Z,4.53
2018-07-23T17:46:02.181Z,4.40
2018-07-23T17:48:04.419Z,4.70
2018-07-23T17:50:06.651Z,4.80
2018-07-23T17:52:08.969Z,4.97
2018-07-23T17:54:11.163Z,4.87
2018-07-23T17:56:13.392Z,4.47
2018-07-23T18:00:24.268Z,4.83
2018-07-23T18:02:26.472Z,4.23
2018-07-23T18:04:28.651Z,4.03
2018-07-23T18:06:30.920Z,4.60
2018-07-23T18:08:33.157Z,4.40
2018-07-23T18:10:35.337Z,4.27
2018-07-23T18:12:37.557Z,4.50
2018-07-23T18:14:39.779Z,4.63
2018-07-23T18:16:41.929Z,4.10
2018-07-23T18:18:44.615Z,4.47
2018-07-23T18:20:46.828Z,4.47
2018-07-23T18:22:50.166Z,4.57
2018-07-23T18:24:52.608Z,4.27
2018-07-23T18:26:54.799Z,4.10
2018-07-23T18:28:58.293Z,4.20
2018-07-23T18:31:00.651Z,4.03
2018-07-23T18:33:02.848Z,3.80
2018-07-23T18:35:05.975Z,4.03
2018-07-23T18:37:09.399Z,4.10
2018-07-23T18:39:13.194Z,4.50
2018-07-23T18:41:15.401Z,4.10
2018-07-23T18:43:19.623Z,5.80
2018-07-23T18:45:21.845Z,4.37
2018-07-23T18:47:24.014Z,4.10
2018-07-23T18:49:34.365Z,4.20
2018-07-23T18:51:46.651Z,3.80
2018-07-23T18:53:48.825Z,4.20
2018-07-23T18:55:51.012Z,4.07
2018-07-23T18:57:53.182Z,4.27
2018-07-23T18:59:55.373Z,4.07
2018-07-23T19:01:58.124Z,4.40
2018-07-23T19:04:00.375Z,3.80
2018-07-23T19:06:02.588Z,4.20
2018-07-23T19:08:04.962Z,4.03
2018-07-23T19:10:08.686Z,4.10
2018-07-23T19:12:11.570Z,4.20
2018-07-23T19:14:14.554Z,4.17
2018-07-23T19:16:20.191Z,4.00
2018-07-23T19:18:22.503Z,4.07
2018-07-23T19:20:24.773Z,4.00
2018-07-23T19:22:27.173Z,4.27
2018-07-23T19:24:31.547Z,3.97
2018-07-23T19:26:35.124Z,3.90
2018-07-23T19:28:37.390Z,4.00
2018-07-23T19:30:39.566Z,3.90
2018-07-23T19:32:41.741Z,5.30
2018-07-23T19:34:44.577Z,4.07
2018-07-23T19:36:48.217Z,3.50
2018-07-23T19:38:50.445Z,3.80
2018-07-23T19:40:58.224Z,4.13
2018-07-23T19:43:00.823Z,4.23
2018-07-23T19:45:02.987Z,4.27
2018-07-23T19:47:05.212Z,3.63
2018-07-23T19:49:07.472Z,4.30
2018-07-23T19:51:12.281Z,4.07
2018-07-23T19:53:14.519Z,4.00
2018-07-23T19:55:16.708Z,3.70
2018-07-23T19:57:18.923Z,3.67
2018-07-23T19:59:21.208Z,3.83
2018-07-23T20:01:23.410Z,3.47
2018-07-23T20:03:25.648Z,3.60
2018-07-23T20:05:27.865Z,3.90
2018-07-23T20:07:30.120Z,3.97
2018-07-23T20:09:32.334Z,3.60
2018-07-23T20:11:34.537Z,3.90
2018-07-23T20:13:36.773Z,3.87
2018-07-23T20:15:38.972Z,4.00
2018-07-23T20:17:41.182Z,3.60
2018-07-23T20:19:43.392Z,3.80
2018-07-23T20:21:45.733Z,3.90
2018-07-23T20:23:47.916Z,4.30
2018-07-23T20:25:50.615Z,3.83
2018-07-23T20:27:53.543Z,3.60
2018-07-23T20:29:55.876Z,5.17
2018-07-23T20:31:58.125Z,3.77
2018-07-23T20:34:00.439Z,3.80
2018-07-23T20:36:05.398Z,3.60
2018-07-23T20:38:07.949Z,4.90
2018-07-23T20:40:12.297Z,3.60
2018-07-23T20:42:15.380Z,3.80
2018-07-23T20:44:18.093Z,3.50
2018-07-23T20:46:20.416Z,3.73
2018-07-23T20:48:22.680Z,3.40
2018-07-23T20:50:24.881Z,3.70
2018-07-23T20:52:28.417Z,3.70
2018-07-23T20:54:30.954Z,3.63
2018-07-23T20:56:33.564Z,4.93
2018-07-23T20:58:36.324Z,3.70
2018-07-23T21:00:38.527Z,3.57
2018-07-23T21:02:40.833Z,3.60
2018-07-23T21:04:43.095Z,3.67
2018-07-23T21:06:45.359Z,4.83
2018-07-23T21:08:47.549Z,3.60
2018-07-23T21:10:49.791Z,3.40
2018-07-23T21:12:51.995Z,4.83
2018-07-23T21:14:54.238Z,3.37
2018-07-23T21:16:56.487Z,3.30
2018-07-23T21:18:58.672Z,3.37
2018-07-23T21:21:00.886Z,3.70
2018-07-23T21:23:03.101Z,3.30
2018-07-23T21:25:06.062Z,3.30
2018-07-23T21:27:08.230Z,3.30
2018-07-23T21:29:10.477Z,3.80
2018-07-23T21:31:12.742Z,3.70
2018-07-23T21:33:14.968Z,3.57
2018-07-23T21:35:17.113Z,3.70
2018-07-23T21:37:19.356Z,3.50
2018-07-23T21:39:21.582Z,3.97
2018-07-23T21:41:23.846Z,3.53
2018-07-23T21:43:26.277Z,3.73
2018-07-23T21:45:28.515Z,3.40
2018-07-23T21:47:31.009Z,3.60
2018-07-23T21:49:33.241Z,3.80
2018-07-23T21:51:35.478Z,3.67
2018-07-23T21:53:37.763Z,3.43
2018-07-23T21:55:39.969Z,3.37
2018-07-23T21:57:42.133Z,3.57
2018-07-23T21:59:44.277Z,3.27
2018-07-23T22:01:46.536Z,4.37
2018-07-23T22:03:48.776Z,3.50
2018-07-23T22:05:50.999Z,3.83
2018-07-23T22:07:53.242Z,3.53
2018-07-23T22:09:55.454Z,3.93
2018-07-23T22:11:57.673Z,3.33
2018-07-23T22:13:59.948Z,3.70
2018-07-23T22:16:02.228Z,3.57
2018-07-23T22:18:04.662Z,3.43
2018-07-23T22:20:07.763Z,3.33
2018-07-23T22:22:09.937Z,4.90
2018-07-23T22:24:12.190Z,3.80
2018-07-23T22:26:14.368Z,3.40
2018-07-23T22:28:17.523Z,3.57
2018-07-23T22:30:19.821Z,3.80
2018-07-23T22:32:22.177Z,3.27
2018-07-23T22:34:24.384Z,3.60
2018-07-23T22:36:26.606Z,3.50
2018-07-23T22:38:28.839Z,3.50
2018-07-23T22:40:31.233Z,3.87
2018-07-23T22:42:35.144Z,3.80
2018-07-23T22:44:37.380Z,3.70
2018-07-23T22:46:39.577Z,3.60
2018-07-23T22:48:41.740Z,3.70
2018-07-23T22:50:44.017Z,3.57
2018-07-23T22:52:46.267Z,4.23
2018-07-23T22:54:48.482Z,3.87
2018-07-23T22:56:50.803Z,3.27
2018-07-23T22:58:53.079Z,3.67
2018-07-23T23:00:55.362Z,3.43
2018-07-23T23:02:57.545Z,3.60
2018-07-23T23:04:59.763Z,3.70
2018-07-23T23:07:01.937Z,3.53
2018-07-23T23:09:06.305Z,3.63
2018-07-23T23:11:08.485Z,3.80
2018-07-23T23:13:10.680Z,3.47
2018-07-23T23:15:12.958Z,3.93
2018-07-23T23:17:15.202Z,3.63
2018-07-23T23:19:17.916Z,3.87
2018-07-23T23:21:20.297Z,3.47
2018-07-23T23:23:22.551Z,3.40
2018-07-23T23:25:24.788Z,3.30
2018-07-23T23:27:27.029Z,3.80
2018-07-23T23:29:32.699Z,3.50
2018-07-23T23:31:34.921Z,3.80
2018-07-23T23:33:37.122Z,3.83
2018-07-23T23:35:39.290Z,3.73
2018-07-23T23:37:41.601Z,3.77
2018-07-23T23:39:43.839Z,4.03
2018-07-23T23:41:46.606Z,4.70
2018-07-23T23:43:48.828Z,3.70
2018-07-23T23:45:51.014Z,3.60
2018-07-23T23:47:53.240Z,3.80
2018-07-23T23:49:55.416Z,3.60
2018-07-23T23:51:57.763Z,4.10
2018-07-23T23:54:00.777Z,3.63
2018-07-23T23:56:02.973Z,4.00
2018-07-23T23:58:05.210Z,3.77
